Terminal Aerodrome Forecast
Issued by NWS Grand Forks, ND

Home | Current Version | Previous Version | Text Only | Print | Product List | Glossary On
Versions: 1 2 3 4 5 6 7 8 9 10 11 12 13 14 15 16 17 18 19 20 21 22
000
FTUS43 KFGF 300300 AAA
TAFGFK
TAF AMD
KGFK 300344Z 3004/3024 36013KT P6SM BKN050
     FM300500 35006KT P6SM SCT050
     FM301500 36005KT P6SM SCT050=

USA.gov is the U.S. government's official web portal to all federal, state and local government web resources and services.